»·PEaware :: N24W KSAN-KLAX

N24W :: KSAN-KLAX

FLIGHT INFORMATION

Flight Status: Arrived
Operator: Privately registered:
United States
More flights under this callsign
Pilot: Mark R. (11809)
Aircraft: CESSNA 550 CITATION 2/S2/BRAVO
(C550)
More flights by this aircraft type
Origin: KSAN San Diego Intl-Lindbergh
United States
Destination: KLAX Los Angeles Intl
United States
More flights between these airports :: More routes between these airports
Route: CWARD2 SLI
File this flight plan on PilotEdge
Remarks:
Altitude:
(Current/Filed)
10,000ft
Speed:
(Current/Filed)
250kts
Departed: 23-Nov-18 12:25 PM
Arrived: 23-Nov-18 12:55 PM
Distance/Time
Traveled:
94nm/0:30
Distance/Time
To Go:
Arrived

Flight Plot

Page will automatically refresh every two minutes.

Flight plan parsing failed; only flown route is shown


Map Options




Map Legend


Flown Route
Filed Route
Departure Airport
Arrival Airport
Navaid (VOR, NDB)
Fix

Horizontal Profiles

Position Reports

Time Latitude Longitude Heading Altitude Ground
Speed
23-Nov-18 12:09 32.732502 -117.176720 144 23ft 0kts
23-Nov-18 12:10 32.732502 -117.176720 144 23ft 0kts
23-Nov-18 12:11 32.732502 -117.176720 144 23ft 0kts
23-Nov-18 12:12 32.732502 -117.176720 144 23ft 0kts
23-Nov-18 12:13 32.732502 -117.176720 144 23ft 0kts
23-Nov-18 12:14 32.732502 -117.176720 144 23ft 0kts
23-Nov-18 12:15 32.732502 -117.176720 144 23ft 0kts
23-Nov-18 12:16 32.732502 -117.176720 144 23ft 0kts
23-Nov-18 12:17 32.732502 -117.176720 144 23ft 0kts
23-Nov-18 12:18 32.732502 -117.176720 144 23ft 0kts
23-Nov-18 12:19 32.732502 -117.176720 144 23ft 0kts
23-Nov-18 12:20 32.732502 -117.176720 144 23ft 0kts
23-Nov-18 12:21 32.732502 -117.176720 144 23ft 0kts
23-Nov-18 12:22 32.732502 -117.176720 144 23ft 0kts
23-Nov-18 12:23 32.732502 -117.176720 144 23ft 0kts
23-Nov-18 12:24 32.731973 -117.176265 142 23ft 7kts
23-Nov-18 12:25 32.730930 -117.175418 158 23ft 0kts
23-Nov-18 12:26 32.730930 -117.175418 158 23ft 0kts
23-Nov-18 12:27 32.730907 -117.175408 158 23ft 2kts
23-Nov-18 12:28 32.730605 -117.177512 286 20ft 60kts
23-Nov-18 12:29 32.750808 -117.223025 306 2461ft 180kts
23-Nov-18 12:30 32.775893 -117.270101 299 4885ft 224kts
23-Nov-18 12:31 32.811619 -117.335211 300 7898ft 250kts
23-Nov-18 12:32 32.855246 -117.404707 308 9476ft 270kts
23-Nov-18 12:33 32.902815 -117.478745 307 9983ft 298kts
23-Nov-18 12:34 32.953314 -117.557421 307 9980ft 301kts
23-Nov-18 12:35 33.004261 -117.636910 307 9979ft 301kts
23-Nov-18 12:36 33.054306 -117.715162 307 9980ft 295kts
23-Nov-18 12:37 33.113800 -117.780233 317 10000ft 291kts
23-Nov-18 12:38 33.175373 -117.843047 319 10000ft 291kts
23-Nov-18 12:39 33.250750 -117.874525 349 10010ft 295kts
23-Nov-18 12:40 33.331500 -117.896117 346 10010ft 300kts
23-Nov-18 12:41 33.412460 -117.920521 347 9758ft 301kts
23-Nov-18 12:42 33.488502 -117.947431 341 7742ft 274kts
23-Nov-18 12:43 33.559027 -117.972992 342 5924ft 239kts
23-Nov-18 12:44 33.617444 -117.994223 342 4178ft 218kts
23-Nov-18 12:45 33.673606 -118.014709 342 3020ft 209kts
23-Nov-18 12:46 33.728510 -118.034767 342 3011ft 208kts
23-Nov-18 12:47 33.784491 -118.055259 342 3008ft 209kts
23-Nov-18 12:48 33.840948 -118.053098 5 3008ft 201kts
23-Nov-18 12:49 33.894216 -118.047807 5 3000ft 189kts
23-Nov-18 12:50 33.946347 -118.045995 331 2982ft 189kts
23-Nov-18 12:51 33.960500 -118.103454 271 3025ft 183kts
23-Nov-18 12:52 33.958612 -118.164078 264 3017ft 178kts
23-Nov-18 12:53 33.953650 -118.222124 263 2674ft 171kts
23-Nov-18 12:54 33.948639 -118.273006 263 1869ft 143kts
23-Nov-18 12:55 33.944107 -118.317625 263 1150ft 128kts
23-Nov-18 12:56 33.939969 -118.358292 263 549ft 118kts
23-Nov-18 12:57 33.936120 -118.395073 263 105ft 73kts
23-Nov-18 12:58 33.934508 -118.402016 164 116ft 0kts
23-Nov-18 12:59 33.934423 -118.399660 83 110ft 11kts
23-Nov-18 13:00 33.933916 -118.398100 338 105ft 1kts

Navigation Log

Ident Type
Flight plan parsing failed, navigation log unavailable